Time;durP1;ratioP1;P1;durP2;ratioP2;P2;SDS_P1;SDS_P2;PMS_P1;PMS_P2;Temp;Humidity;BMP_temperature;BMP_pressure;BME280_temperature;BME280_humidity;BME280_pressure;Samples;Min_cycle;Max_cycle;Signal;HPM_P1;HPM_P2
2022/08/13 00:01:01;;;;;;;0.60;0.60;;;;;;;18.81;64.29;95437.88;4399427;32;20237;-61
2022/08/13 00:03:29;;;;;;;0.47;0.47;;;;;;;18.75;64.84;95435.78;4407402;32;20188;-61
2022/08/13 00:05:54;;;;;;;0.40;0.40;;;;;;;18.76;64.68;95440.81;4404929;32;20211;-60
2022/08/13 00:08:24;;;;;;;0.77;0.77;;;;;;;18.61;65.50;95444.25;4404029;32;20184;-61
2022/08/13 00:10:51;;;;;;;0.80;0.80;;;;;;;18.53;66.01;95437.06;4410619;32;20188;-61
2022/08/13 00:13:18;;;;;;;0.67;0.67;;;;;;;18.39;66.73;95442.03;4413106;32;20192;-60
2022/08/13 00:15:45;;;;;;;0.50;0.50;;;;;;;18.40;66.40;95439.00;4405839;32;20192;-60
2022/08/13 00:18:15;;;;;;;0.73;0.73;;;;;;;18.19;67.37;95436.47;4406417;32;20183;-60
2022/08/13 00:20:50;;;;;;;0.30;0.30;;;;;;;18.11;67.74;95436.59;4396265;32;20184;-60
2022/08/13 00:23:17;;;;;;;0.30;0.30;;;;;;;18.03;68.04;95424.88;4405099;32;20184;-60
2022/08/13 00:25:44;;;;;;;0.40;0.40;;;;;;;18.11;67.72;95431.22;4405887;32;20265;-60
2022/08/13 00:28:11;;;;;;;0.70;0.70;;;;;;;18.32;66.80;95434.53;4411801;32;20203;-60
2022/08/13 00:30:38;;;;;;;0.70;0.70;;;;;;;18.39;66.51;95437.44;4402539;32;20184;-61
2022/08/13 00:33:10;;;;;;;0.77;0.77;;;;;;;18.33;66.75;95438.00;4394541;32;20207;-60
2022/08/13 00:35:36;;;;;;;0.50;0.50;;;;;;;18.21;66.81;95438.84;4401505;32;20181;-61
2022/08/13 00:38:05;;;;;;;0.67;0.67;;;;;;;18.25;66.74;95442.41;4410443;32;20189;-60
2022/08/13 00:40:31;;;;;;;0.70;0.70;;;;;;;18.10;67.40;95435.03;4400467;32;20234;-60
2022/08/13 00:43:03;;;;;;;0.60;0.60;;;;;;;18.25;66.76;95444.31;4411358;32;20184;-60
2022/08/13 00:45:29;;;;;;;0.83;0.83;;;;;;;18.25;66.67;95437.03;4405487;32;20176;-61
2022/08/13 00:50:39;;;;;;;7.63;1.50;;;;;;;18.58;65.61;95439.50;4413654;32;20249;-61
2022/08/13 00:53:05;;;;;;;0.73;0.73;;;;;;;18.81;64.91;95434.41;4400003;32;20187;-60
2022/08/13 00:55:31;;;;;;;0.93;0.90;;;;;;;18.85;64.78;95424.56;4406073;32;20187;-61
2022/08/13 00:57:58;;;;;;;0.70;0.70;;;;;;;18.97;64.64;95429.06;4414160;32;20188;-61
2022/08/13 01:00:25;;;;;;;0.90;0.90;;;;;;;18.85;64.79;95421.88;4402487;32;20232;-61
2022/08/13 01:02:53;;;;;;;0.50;0.50;;;;;;;18.79;64.87;95429.38;4413288;32;20231;-61
2022/08/13 01:05:24;;;;;;;0.57;0.57;;;;;;;18.67;65.22;95421.38;4397169;32;20192;-62
2022/08/13 01:07:50;;;;;;;1.37;0.60;;;;;;;18.69;65.61;95423.72;4401277;32;20228;-62
2022/08/13 01:10:17;;;;;;;0.70;0.70;;;;;;;18.88;64.99;95421.19;4416593;32;20227;-61
2022/08/13 01:12:45;;;;;;;0.73;0.70;;;;;;;19.00;64.84;95417.63;4399738;32;20188;-61
2022/08/13 01:15:12;;;;;;;0.63;0.63;;;;;;;18.87;64.98;95422.31;4393217;32;20188;-61
2022/08/13 01:17:41;;;;;;;1.50;1.00;;;;;;;18.78;64.89;95421.66;4398730;32;20202;-61
2022/08/13 01:20:09;;;;;;;0.40;0.40;;;;;;;18.83;64.35;95427.59;4408238;32;20188;-61
2022/08/13 01:22:36;;;;;;;0.53;0.53;;;;;;;18.74;65.12;95416.19;4404434;32;20189;-61
2022/08/13 01:25:05;;;;;;;0.50;0.50;;;;;;;18.86;64.57;95412.69;4402213;32;20185;-60
2022/08/13 01:27:31;;;;;;;0.60;0.60;;;;;;;18.63;65.12;95422.41;4402391;32;20192;-62
2022/08/13 01:29:59;;;;;;;0.67;0.67;;;;;;;18.60;65.19;95415.03;4406865;32;20264;-62
2022/08/13 01:32:26;;;;;;;1.20;1.13;;;;;;;18.61;65.50;95417.38;4407026;32;20189;-63
2022/08/13 01:34:52;;;;;;;6.53;0.70;;;;;;;18.68;65.34;95414.09;4404236;32;20197;-63
2022/08/13 01:37:18;;;;;;;0.33;0.33;;;;;;;18.54;65.45;95417.91;4402309;32;20236;-62
2022/08/13 01:39:44;;;;;;;1.03;1.03;;;;;;;18.51;65.57;95413.22;4414851;32;20204;-62
2022/08/13 01:42:20;;;;;;;0.63;0.63;;;;;;;18.63;64.99;95409.75;4401943;32;20256;-62
2022/08/13 01:44:48;;;;;;;0.70;0.70;;;;;;;18.73;64.79;95411.16;4421733;32;20299;-60
2022/08/13 01:52:47;;;;;;;0.57;0.57;;;;;;;18.68;65.01;95408.72;4405034;32;20202;-60
2022/08/13 01:55:13;;;;;;;1.40;0.80;;;;;;;18.64;65.28;95405.94;4401379;32;20211;-60
2022/08/13 01:57:43;;;;;;;0.70;0.70;;;;;;;18.65;65.08;95406.72;4404733;32;20247;-60
2022/08/13 02:00:15;;;;;;;0.60;0.60;;;;;;;18.60;65.52;95415.03;4393324;32;20259;-60
2022/08/13 02:02:42;;;;;;;0.60;0.60;;;;;;;18.43;65.98;95406.09;4403280;32;20181;-60
2022/08/13 02:05:11;;;;;;;0.73;0.73;;;;;;;18.51;65.82;95407.84;4415449;32;20176;-60
2022/08/13 02:07:42;;;;;;;0.50;0.50;;;;;;;18.58;66.09;95414.53;4414294;32;20201;-60
2022/08/13 02:10:08;;;;;;;0.67;0.67;;;;;;;18.26;66.94;95416.34;4401158;32;22760;-60
2022/08/13 02:12:35;;;;;;;0.50;0.50;;;;;;;18.38;66.48;95408.22;4397846;32;20203;-60
2022/08/13 02:15:05;;;;;;;0.50;0.50;;;;;;;18.46;66.58;95407.31;4400858;32;20192;-60
2022/08/13 02:17:41;;;;;;;0.30;0.30;;;;;;;18.66;65.86;95413.66;4412722;32;20187;-60
2022/08/13 02:20:09;;;;;;;1.40;1.30;;;;;;;18.53;66.39;95412.87;4405355;32;20192;-60
2022/08/13 02:22:36;;;;;;;0.40;0.40;;;;;;;18.52;65.56;95404.03;4405783;32;20193;-59
2022/08/13 02:25:03;;;;;;;0.50;0.50;;;;;;;18.59;65.71;95402.69;4395848;32;20233;-60
2022/08/13 02:27:29;;;;;;;1.17;0.77;;;;;;;18.54;65.55;95399.09;4395390;32;20188;-60
2022/08/13 02:29:55;;;;;;;0.50;0.50;;;;;;;18.40;65.35;95406.00;4404850;32;20199;-60
2022/08/13 02:32:23;;;;;;;0.60;0.60;;;;;;;18.33;65.65;95403.88;4401324;32;20180;-60
2022/08/13 02:34:50;;;;;;;0.53;0.53;;;;;;;18.37;65.99;95402.06;4396659;32;20184;-60
2022/08/13 02:37:21;;;;;;;0.97;0.97;;;;;;;18.28;65.42;95397.97;4404006;32;20187;-61
2022/08/13 02:39:48;;;;;;;0.57;0.57;;;;;;;18.33;65.54;95406.56;4408533;32;20176;-61
2022/08/13 02:42:14;;;;;;;0.83;0.83;;;;;;;18.18;65.68;95409.97;4401935;32;20252;-61
2022/08/13 02:44:40;;;;;;;0.77;0.77;;;;;;;18.28;65.78;95409.50;4400534;32;20188;-61
2022/08/13 02:47:05;;;;;;;0.70;0.70;;;;;;;18.32;66.04;95405.00;4407488;32;20188;-61
2022/08/13 02:49:32;;;;;;;0.73;0.73;;;;;;;18.41;65.20;95413.72;4407299;32;20263;-61
2022/08/13 02:51:59;;;;;;;0.40;0.40;;;;;;;18.42;65.50;95407.22;4400944;32;20184;-61
2022/08/13 02:54:25;;;;;;;0.60;0.60;;;;;;;18.20;65.21;95407.72;4400663;32;20259;-61
2022/08/13 02:56:51;;;;;;;0.43;0.43;;;;;;;18.36;64.46;95407.78;4401290;32;20194;-61
2022/08/13 02:59:16;;;;;;;0.80;0.80;;;;;;;18.29;64.44;95408.34;4401173;32;20221;-61
2022/08/13 03:01:43;;;;;;;0.60;0.60;;;;;;;18.20;65.30;95399.66;4406904;32;20188;-61
2022/08/13 03:04:09;;;;;;;0.73;0.73;;;;;;;18.27;65.57;95397.19;4401202;32;20375;-61
2022/08/13 03:06:34;;;;;;;0.30;0.30;;;;;;;18.36;65.17;95405.87;4398814;32;20180;-61
2022/08/13 03:09:01;;;;;;;0.60;0.60;;;;;;;18.19;65.57;95406.16;4414959;32;20196;-61
2022/08/13 03:11:29;;;;;;;1.37;0.60;;;;;;;18.04;65.68;95404.19;4413594;32;20194;-61
2022/08/13 03:14:01;;;;;;;0.40;0.40;;;;;;;18.00;66.21;95409.44;4412701;32;20192;-61
2022/08/13 03:16:27;;;;;;;0.60;0.60;;;;;;;17.81;65.91;95401.97;4403288;32;20188;-61
2022/08/13 03:18:54;;;;;;;0.30;0.30;;;;;;;17.75;65.12;95392.56;4426611;32;20202;-61
2022/08/13 03:21:26;;;;;;;0.97;0.83;;;;;;;17.50;66.75;95401.72;4407257;32;20184;-61
2022/08/13 03:23:51;;;;;;;0.60;0.60;;;;;;;17.53;65.76;95395.69;4399630;32;20238;-61
2022/08/13 03:26:19;;;;;;;0.80;0.80;;;;;;;17.43;66.73;95394.25;4397394;32;20188;-61
2022/08/13 03:28:44;;;;;;;0.50;0.50;;;;;;;17.44;66.13;95398.50;4406790;32;20256;-61
2022/08/13 03:31:09;;;;;;;0.40;0.40;;;;;;;17.47;66.73;95402.38;4407203;32;20184;-60
2022/08/13 03:33:36;;;;;;;0.83;0.83;;;;;;;17.43;67.03;95398.81;4415668;32;20182;-61
2022/08/13 03:36:02;;;;;;;0.40;0.40;;;;;;;17.26;66.79;95404.37;4404273;32;20184;-61
2022/08/13 03:38:27;;;;;;;0.40;0.40;;;;;;;17.22;67.91;95409.62;4399309;32;20253;-61
2022/08/13 03:41:02;;;;;;;0.70;0.70;;;;;;;17.48;66.55;95406.63;4399083;32;20281;-61
2022/08/13 03:43:28;;;;;;;0.43;0.43;;;;;;;17.22;66.84;95411.53;4401886;32;20202;-60
2022/08/13 03:45:54;;;;;;;3.77;0.57;;;;;;;17.30;67.47;95414.09;4406573;32;20215;-61
2022/08/13 03:48:21;;;;;;;0.90;0.90;;;;;;;17.52;66.93;95405.63;4406785;32;20180;-61
2022/08/13 03:50:48;;;;;;;1.00;1.00;;;;;;;17.64;66.13;95402.22;4414379;32;20180;-61
2022/08/13 03:53:15;;;;;;;0.60;0.60;;;;;;;17.58;66.19;95402.72;4403062;32;20218;-60
2022/08/13 03:55:42;;;;;;;0.40;0.40;;;;;;;17.52;66.73;95402.16;4400873;32;20248;-61
2022/08/13 03:58:08;;;;;;;0.63;0.63;;;;;;;17.56;66.74;95404.97;4401251;32;20232;-61
2022/08/13 04:00:37;;;;;;;0.90;0.90;;;;;;;17.52;66.94;95412.87;4406217;32;20243;-61
2022/08/13 04:03:17;;;;;;;0.70;0.70;;;;;;;17.47;66.27;95405.84;4404825;32;20200;-61
2022/08/13 04:05:43;;;;;;;0.57;0.57;;;;;;;17.34;67.04;95415.00;4409585;32;20194;-61
2022/08/13 04:08:10;;;;;;;0.30;0.30;;;;;;;17.27;66.93;95413.97;4416987;32;21841;-61
2022/08/13 04:10:36;;;;;;;0.80;0.80;;;;;;;17.38;67.01;95415.91;4419962;32;20188;-61
2022/08/13 04:13:03;;;;;;;0.60;0.60;;;;;;;17.60;67.23;95417.38;4407834;32;20180;-61
2022/08/13 04:15:28;;;;;;;0.30;0.30;;;;;;;17.61;65.95;95410.91;4405663;32;20184;-61
2022/08/13 04:17:54;;;;;;;0.60;0.60;;;;;;;17.45;66.21;95410.00;4415040;32;20206;-61
2022/08/13 04:20:20;;;;;;;0.77;0.77;;;;;;;17.59;66.48;95407.75;4410642;32;20244;-62
2022/08/13 04:22:45;;;;;;;0.80;0.80;;;;;;;17.51;66.46;95406.75;4425886;32;20184;-61
2022/08/13 04:25:12;;;;;;;0.30;0.30;;;;;;;17.50;65.94;95404.41;4406780;32;20223;-61
2022/08/13 04:27:38;;;;;;;0.83;0.70;;;;;;;17.56;66.00;95404.97;4398025;32;20205;-61
2022/08/13 04:30:06;;;;;;;0.90;0.90;;;;;;;17.21;66.16;95399.25;4413164;32;20227;-61
2022/08/13 04:32:41;;;;;;;0.30;0.30;;;;;;;17.39;67.13;95395.25;4401754;32;20202;-61
2022/08/13 04:35:07;;;;;;;0.50;0.50;;;;;;;17.54;65.28;95402.59;4412219;32;20198;-61
2022/08/13 04:37:33;;;;;;;0.60;0.60;;;;;;;17.52;66.15;95394.91;4408933;32;20245;-61
2022/08/13 04:39:58;;;;;;;2.00;0.90;;;;;;;17.59;65.49;95398.94;4411534;32;20188;-61
2022/08/13 04:42:24;;;;;;;0.40;0.40;;;;;;;17.55;66.33;95400.72;4425916;32;20231;-60
2022/08/13 04:44:49;;;;;;;1.00;0.97;;;;;;;17.71;66.93;95404.31;4394923;32;20183;-62
2022/08/13 04:47:14;;;;;;;0.60;0.60;;;;;;;17.69;65.73;95407.31;4412824;32;20210;-61
2022/08/13 04:49:40;;;;;;;0.30;0.30;;;;;;;17.98;65.19;95400.16;4417496;32;20192;-61
2022/08/13 04:52:05;;;;;;;0.80;0.80;;;;;;;18.02;65.70;95398.37;4417234;32;20251;-61
2022/08/13 04:54:31;;;;;;;0.60;0.60;;;;;;;17.85;64.93;95402.88;4416784;32;20225;-61
2022/08/13 04:56:56;;;;;;;0.90;0.90;;;;;;;17.78;65.19;95408.00;4401977;32;20196;-61
2022/08/13 04:59:22;;;;;;;4.30;1.03;;;;;;;17.80;64.05;95402.31;4409617;32;20187;-61
2022/08/13 05:01:50;;;;;;;0.97;0.60;;;;;;;17.81;65.43;95399.28;4414076;32;20232;-61
2022/08/13 05:04:17;;;;;;;0.67;0.67;;;;;;;17.62;64.99;95396.38;4412364;32;20184;-61
2022/08/13 05:06:43;;;;;;;0.50;0.50;;;;;;;17.65;65.93;95385.00;4409357;32;20222;-61
2022/08/13 05:09:08;;;;;;;0.73;0.73;;;;;;;17.63;66.11;95381.03;4406825;32;20176;-61
2022/08/13 05:11:33;;;;;;;0.60;0.60;;;;;;;17.61;65.48;95386.75;4425069;32;20228;-61
2022/08/13 05:13:59;;;;;;;0.30;0.30;;;;;;;17.76;65.89;95378.03;4413290;32;20183;-61
2022/08/13 05:16:24;;;;;;;0.67;0.67;;;;;;;17.65;66.08;95376.16;4405536;32;20181;-61
2022/08/13 05:18:56;;;;;;;0.67;0.40;;;;;;;17.54;65.80;95370.41;4406433;32;20195;-61
2022/08/13 05:21:23;;;;;;;0.40;0.40;;;;;;;17.73;65.80;95367.97;4402168;32;20199;-60
2022/08/13 05:23:55;;;;;;;0.40;0.40;;;;;;;17.79;65.47;95372.00;4402613;32;20199;-60
2022/08/13 05:26:25;;;;;;;0.43;0.40;;;;;;;17.55;66.06;95374.66;4408573;32;20199;-60
2022/08/13 05:28:51;;;;;;;0.70;0.70;;;;;;;17.58;66.65;95373.22;4404447;32;20211;-60
2022/08/13 05:31:17;;;;;;;0.63;0.53;;;;;;;17.60;66.28;95368.31;4407606;32;20195;-60
2022/08/13 05:33:43;;;;;;;1.30;1.03;;;;;;;17.58;66.48;95370.53;4413543;32;20188;-60
2022/08/13 05:36:09;;;;;;;1.60;0.87;;;;;;;17.64;66.71;95375.37;4394228;32;20272;-60
2022/08/13 05:38:35;;;;;;;0.50;0.50;;;;;;;17.52;66.00;95376.13;4417068;32;20298;-60
2022/08/13 05:41:10;;;;;;;0.80;0.80;;;;;;;17.48;66.84;95380.59;4400194;32;20238;-60
2022/08/13 05:43:36;;;;;;;0.50;0.50;;;;;;;17.44;66.97;95376.25;4397481;32;20224;-60
2022/08/13 05:46:10;;;;;;;0.47;0.47;;;;;;;17.53;66.62;95380.38;4397155;32;20192;-60
2022/08/13 05:48:40;;;;;;;0.50;0.50;;;;;;;17.38;66.96;95373.00;4408570;32;20231;-60
2022/08/13 05:51:13;;;;;;;0.63;0.63;;;;;;;17.66;65.91;95372.34;4432001;32;20179;-59
2022/08/13 05:53:38;;;;;;;0.60;0.60;;;;;;;17.52;65.49;95383.38;4418761;32;20197;-60
2022/08/13 05:56:07;;;;;;;2.30;0.90;;;;;;;17.29;66.67;95384.94;4406280;32;20239;-60
2022/08/13 05:58:34;;;;;;;0.80;0.80;;;;;;;17.50;67.41;95388.28;4431489;32;20198;-60
2022/08/13 06:03:43;;;;;;;0.90;0.90;;;;;;;17.35;66.54;95381.72;4406624;32;20210;-60
2022/08/13 06:06:12;;;;;;;0.63;0.63;;;;;;;17.46;67.39;95390.06;4415692;32;20282;-60
2022/08/13 06:08:42;;;;;;;0.80;0.80;;;;;;;17.60;66.23;95379.03;4407002;32;20233;-60
2022/08/13 06:11:14;;;;;;;0.60;0.60;;;;;;;17.80;66.76;95378.94;4395280;32;20188;-60
2022/08/13 06:13:40;;;;;;;0.43;0.43;;;;;;;17.91;65.66;95375.78;4410741;32;20290;-60
2022/08/13 06:16:11;;;;;;;0.73;0.73;;;;;;;17.97;65.35;95379.78;4415795;32;20188;-60
2022/08/13 06:18:44;;;;;;;2.10;0.70;;;;;;;18.05;65.11;95378.91;4409581;32;20240;-60
2022/08/13 06:21:12;;;;;;;0.70;0.70;;;;;;;18.19;65.28;95379.31;4404532;32;20212;-60
2022/08/13 06:23:38;;;;;;;0.77;0.73;;;;;;;18.29;64.02;95383.44;4401394;32;20187;-60
2022/08/13 06:26:12;;;;;;;0.30;0.30;;;;;;;18.42;64.88;95382.25;4405798;32;20232;-60
2022/08/13 06:28:38;;;;;;;0.60;0.60;;;;;;;18.37;64.45;95388.66;4411385;32;20222;-60
2022/08/13 06:31:13;;;;;;;0.93;0.90;;;;;;;18.47;63.84;95379.34;4404919;32;20215;-60
2022/08/13 06:33:38;;;;;;;0.57;0.57;;;;;;;18.48;63.51;95383.59;4403914;32;20213;-60
2022/08/13 06:36:09;;;;;;;0.70;0.70;;;;;;;18.41;62.93;95381.47;4400327;32;20239;-60
2022/08/13 06:38:36;;;;;;;0.60;0.60;;;;;;;18.38;64.50;95389.44;4412380;32;20243;-60
2022/08/13 06:41:07;;;;;;;1.60;0.60;;;;;;;18.61;64.54;95389.72;4416547;32;20230;-60
2022/08/13 06:43:40;;;;;;;0.80;0.63;;;;;;;18.81;63.22;95384.13;4404455;32;20200;-61
2022/08/13 06:46:12;;;;;;;1.00;0.60;;;;;;;18.85;63.20;95378.84;4397293;32;20188;-62
2022/08/13 06:48:41;;;;;;;0.40;0.40;;;;;;;18.99;62.65;95387.28;4394286;32;20184;-60
2022/08/13 06:51:12;;;;;;;0.63;0.57;;;;;;;19.05;62.37;95379.75;4407712;32;20184;-60
2022/08/13 06:53:41;;;;;;;0.30;0.30;;;;;;;18.96;61.32;95384.50;4403869;32;20198;-60
2022/08/13 06:56:16;;;;;;;0.30;0.30;;;;;;;18.97;62.51;95384.16;4407903;32;20176;-60
2022/08/13 06:58:47;;;;;;;0.47;0.47;;;;;;;19.05;61.98;95385.91;4395898;32;20271;-60
2022/08/13 07:01:30;;;;;;;0.40;0.40;;;;;;;19.18;62.57;95382.00;4404811;32;20233;-60
2022/08/13 07:03:56;;;;;;;0.63;0.63;;;;;;;19.33;61.91;95382.37;4409946;32;20188;-60
2022/08/13 07:06:26;;;;;;;0.60;0.60;;;;;;;19.45;62.26;95390.34;4418534;32;20243;-61
2022/08/13 07:08:54;;;;;;;0.70;0.70;;;;;;;19.49;61.34;95386.62;4409265;32;20189;-63
2022/08/13 07:11:22;;;;;;;0.40;0.40;;;;;;;19.51;61.45;95389.78;4398644;32;20251;-63
2022/08/13 07:13:50;;;;;;;0.43;0.43;;;;;;;19.47;60.14;95388.09;4411706;32;20293;-60
2022/08/13 07:16:16;;;;;;;0.67;0.67;;;;;;;19.53;60.69;95381.34;4414595;32;20192;-60
2022/08/13 07:18:43;;;;;;;0.50;0.47;;;;;;;19.58;60.45;95391.06;4400184;32;20188;-60
2022/08/13 07:21:11;;;;;;;0.50;0.43;;;;;;;19.77;60.57;95391.13;4421849;32;20639;-60
2022/08/13 07:23:38;;;;;;;0.37;0.37;;;;;;;19.88;58.60;95384.84;4401123;32;20192;-60
2022/08/13 07:26:13;;;;;;;0.67;0.67;;;;;;;20.00;59.86;95393.94;4401383;32;20229;-60
2022/08/13 07:28:40;;;;;;;0.53;0.53;;;;;;;19.79;58.07;95388.84;4416120;32;20214;-60
2022/08/13 07:31:09;;;;;;;1.00;0.50;;;;;;;19.96;58.74;95387.69;4393667;32;20208;-60
2022/08/13 07:33:36;;;;;;;0.40;0.40;;;;;;;20.02;58.32;95389.00;4411078;32;20183;-60
2022/08/13 07:36:08;;;;;;;0.33;0.33;;;;;;;20.13;55.87;95390.00;4411956;32;20196;-60
2022/08/13 07:38:35;;;;;;;0.40;0.40;;;;;;;20.14;56.41;95380.81;4403677;32;20201;-60
2022/08/13 07:41:02;;;;;;;0.60;0.60;;;;;;;20.22;55.94;95391.34;4405972;32;20204;-60
2022/08/13 07:43:32;;;;;;;0.63;0.63;;;;;;;20.17;56.11;95383.53;4392475;32;20260;-60
2022/08/13 07:46:10;;;;;;;0.20;0.20;;;;;;;20.14;55.36;95388.88;4400589;32;20302;-60
2022/08/13 07:48:37;;;;;;;0.40;0.40;;;;;;;20.13;57.25;95392.72;4399120;32;20217;-61
2022/08/13 07:51:20;;;;;;;0.47;0.47;;;;;;;20.26;56.07;95391.44;4397530;32;20259;-60
2022/08/13 07:53:46;;;;;;;0.47;0.47;;;;;;;20.34;57.48;95387.78;4410164;32;20184;-60
2022/08/13 07:56:12;;;;;;;0.40;0.40;;;;;;;20.45;54.91;95388.00;4412352;32;20196;-60
2022/08/13 07:58:37;;;;;;;0.53;0.53;;;;;;;20.40;55.35;95386.38;4402812;32;20233;-60
2022/08/13 08:01:08;;;;;;;0.70;0.70;;;;;;;20.44;55.54;95389.13;4406617;32;20180;-60
2022/08/13 08:03:41;;;;;;;0.33;0.33;;;;;;;20.55;56.62;95396.31;4402388;32;20210;-60
2022/08/13 08:06:15;;;;;;;0.10;0.10;;;;;;;20.59;55.28;95385.59;4430333;32;20180;-60
2022/08/13 08:08:42;;;;;;;0.50;0.50;;;;;;;20.52;54.49;95390.84;4417962;32;20313;-60
2022/08/13 08:11:09;;;;;;;0.23;0.23;;;;;;;20.59;54.94;95394.44;4422678;32;20245;-60
2022/08/13 08:13:35;;;;;;;0.17;0.17;;;;;;;20.66;54.97;95393.03;4417914;32;20238;-60
2022/08/13 08:16:03;;;;;;;0.90;0.90;;;;;;;20.70;55.03;95389.28;4409887;32;20192;-60
2022/08/13 08:18:49;;;;;;;0.60;0.60;;;;;;;20.84;54.67;95394.16;4415918;32;20255;-60
2022/08/13 08:21:15;;;;;;;0.50;0.50;;;;;;;20.93;52.88;95387.41;4407666;32;20200;-59
2022/08/13 08:23:41;;;;;;;0.60;0.60;;;;;;;20.89;52.85;95380.38;4411591;32;20210;-61
2022/08/13 08:26:10;;;;;;;0.40;0.40;;;;;;;20.84;52.85;95388.75;4397761;32;20241;-59
2022/08/13 08:28:35;;;;;;;0.27;0.20;;;;;;;20.89;53.15;95393.88;4408732;32;20183;-59
2022/08/13 08:31:06;;;;;;;0.30;0.30;;;;;;;20.93;52.78;95392.03;4400143;32;20206;-59
2022/08/13 08:33:42;;;;;;;0.37;0.37;;;;;;;20.93;52.95;95395.50;4406761;32;20240;-59
2022/08/13 08:36:10;;;;;;;0.50;0.50;;;;;;;20.93;52.90;95397.41;4410659;32;20245;-61
2022/08/13 08:44:32;;;;;;;0.70;0.70;;;;;;;21.15;52.69;95396.66;4398761;32;20241;-60
2022/08/13 08:46:59;;;;;;;0.27;0.27;;;;;;;21.30;52.90;95389.63;4402207;32;20207;-59
2022/08/13 08:49:25;;;;;;;0.40;0.40;;;;;;;21.42;52.85;95385.94;4403111;32;20188;-59
2022/08/13 08:51:52;;;;;;;0.50;0.50;;;;;;;21.46;52.15;95386.78;4399405;32;20188;-60
2022/08/13 08:54:19;;;;;;;0.37;0.37;;;;;;;21.47;50.66;95394.53;4404139;32;20183;-59
2022/08/13 08:56:47;;;;;;;0.83;0.60;;;;;;;21.48;50.51;95389.91;4398143;32;20188;-61
2022/08/13 08:59:13;;;;;;;0.47;0.30;;;;;;;21.55;50.73;95392.75;4392177;32;20192;-59
2022/08/13 09:01:40;;;;;;;0.33;0.33;;;;;;;21.61;50.84;95394.00;4393600;32;20220;-59
2022/08/13 09:04:07;;;;;;;0.20;0.20;;;;;;;21.68;51.25;95394.09;4408758;32;20187;-59
2022/08/13 09:06:32;;;;;;;0.60;0.60;;;;;;;21.68;51.46;95391.41;4392456;32;20192;-59
2022/08/13 09:09:00;;;;;;;0.50;0.50;;;;;;;21.79;51.71;95397.75;4405277;32;20236;-59
2022/08/13 09:11:28;;;;;;;2.53;0.63;;;;;;;21.82;51.86;95401.66;4406584;32;20269;-59
2022/08/13 09:13:55;;;;;;;0.30;0.30;;;;;;;21.85;52.07;95392.81;4409990;32;20195;-60
2022/08/13 09:16:23;;;;;;;0.30;0.30;;;;;;;21.89;51.95;95386.31;4406588;32;20179;-61
2022/08/13 09:18:50;;;;;;;0.20;0.20;;;;;;;21.98;51.69;95385.28;4407429;32;20199;-60
2022/08/13 09:21:17;;;;;;;2.20;0.50;;;;;;;21.99;51.19;95387.63;4407715;32;20188;-60
2022/08/13 09:23:46;;;;;;;0.60;0.60;;;;;;;21.93;51.05;95389.84;4403582;32;20188;-60
2022/08/13 09:26:15;;;;;;;0.30;0.30;;;;;;;21.87;51.71;95396.69;4414676;32;20211;-60
2022/08/13 09:28:42;;;;;;;0.40;0.40;;;;;;;21.86;52.00;95388.97;4410891;32;20255;-60
2022/08/13 09:31:13;;;;;;;0.47;0.47;;;;;;;22.01;51.90;95390.00;4416416;32;20206;-60
2022/08/13 09:33:39;;;;;;;0.20;0.20;;;;;;;21.98;52.04;95390.69;4405960;32;20176;-60
2022/08/13 09:36:10;;;;;;;0.37;0.37;;;;;;;22.01;52.17;95392.69;4414462;32;20255;-60
2022/08/13 09:38:37;;;;;;;0.60;0.60;;;;;;;22.03;52.59;95385.75;4405441;32;20196;-60
2022/08/13 09:41:36;;;;;;;0.60;0.60;;;;;;;22.01;52.74;95379.97;4416057;32;20185;-61
2022/08/13 09:44:04;;;;;;;0.50;0.50;;;;;;;22.13;53.30;95387.84;4402800;32;20201;-61
2022/08/13 09:46:31;;;;;;;0.70;0.70;;;;;;;22.20;53.19;95384.47;4393606;32;20218;-61
2022/08/13 09:48:57;;;;;;;0.20;0.20;;;;;;;22.10;53.54;95393.97;4392058;32;20183;-61
2022/08/13 09:51:24;;;;;;;0.30;0.30;;;;;;;22.23;51.80;95387.22;4385410;32;20188;-61
2022/08/13 09:53:51;;;;;;;0.57;0.57;;;;;;;22.36;51.32;95390.47;4401304;32;20188;-61
2022/08/13 09:56:17;;;;;;;0.77;0.77;;;;;;;22.35;51.33;95386.22;4383457;32;20192;-61
2022/08/13 09:58:50;;;;;;;0.53;0.53;;;;;;;22.41;52.08;95390.16;4400239;32;20234;-61
2022/08/13 10:01:18;;;;;;;0.40;0.40;;;;;;;22.41;52.48;95386.66;4395229;32;20251;-60
2022/08/13 10:03:44;;;;;;;1.03;1.03;;;;;;;22.48;52.54;95386.75;4398286;32;20271;-61
2022/08/13 10:06:13;;;;;;;0.50;0.50;;;;;;;22.50;52.91;95384.44;4403763;32;20286;-61
2022/08/13 10:08:38;;;;;;;1.03;0.83;;;;;;;22.54;52.67;95385.28;4392367;32;20226;-61
2022/08/13 10:11:09;;;;;;;0.87;0.87;;;;;;;22.54;53.08;95382.56;4396737;32;20188;-61
2022/08/13 10:13:35;;;;;;;1.47;0.63;;;;;;;22.69;52.83;95376.19;4402217;32;20229;-61
2022/08/13 10:16:00;;;;;;;0.60;0.60;;;;;;;22.78;52.76;95381.34;4390110;32;20189;-61
2022/08/13 10:18:28;;;;;;;0.60;0.60;;;;;;;22.81;52.14;95383.31;4390433;32;20203;-61
2022/08/13 10:20:54;;;;;;;0.47;0.47;;;;;;;22.90;52.06;95381.84;4395455;32;20200;-61
2022/08/13 10:23:19;;;;;;;0.40;0.40;;;;;;;22.97;52.15;95381.16;4384111;32;20200;-61
2022/08/13 10:25:46;;;;;;;0.30;0.30;;;;;;;23.22;51.13;95376.78;4392512;32;20196;-61
2022/08/13 10:28:21;;;;;;;0.30;0.30;;;;;;;23.36;50.23;95368.00;4391885;32;20202;-61
2022/08/13 10:30:46;;;;;;;0.73;0.73;;;;;;;23.42;49.55;95374.63;4390454;32;20201;-60
2022/08/13 10:33:12;;;;;;;0.40;0.40;;;;;;;23.36;48.69;95370.69;4378112;32;20181;-60
2022/08/13 10:35:39;;;;;;;0.67;0.67;;;;;;;23.44;48.67;95379.66;4387127;32;20196;-60
2022/08/13 10:38:08;;;;;;;0.43;0.43;;;;;;;23.46;48.51;95380.06;4410506;32;20219;-60
2022/08/13 10:40:34;;;;;;;0.40;0.40;;;;;;;23.42;48.28;95365.72;4384503;32;20177;-60
2022/08/13 10:42:59;;;;;;;0.40;0.40;;;;;;;23.53;47.32;95372.03;4390472;32;20193;-61
2022/08/13 10:45:25;;;;;;;1.00;0.90;;;;;;;23.60;47.40;95355.84;4395074;32;20261;-60
2022/08/13 10:47:53;;;;;;;0.50;0.50;;;;;;;23.66;47.57;95362.47;4404157;32;20191;-61
2022/08/13 10:50:20;;;;;;;0.87;0.87;;;;;;;23.81;47.09;95353.28;4396564;32;20223;-60
2022/08/13 10:52:46;;;;;;;0.57;0.57;;;;;;;23.87;46.02;95349.06;4390859;32;20246;-60
2022/08/13 10:55:14;;;;;;;0.43;0.43;;;;;;;23.93;45.88;95355.66;4398194;32;20263;-61
2022/08/13 10:57:41;;;;;;;0.30;0.30;;;;;;;23.97;45.80;95355.69;4390378;32;20251;-60
2022/08/13 11:00:10;;;;;;;0.67;0.67;;;;;;;23.91;45.84;95352.56;4396431;32;20210;-61
2022/08/13 11:02:37;;;;;;;0.20;0.20;;;;;;;23.82;46.59;95352.13;4387104;32;20192;-60
2022/08/13 11:05:06;;;;;;;2.23;1.10;;;;;;;23.96;45.28;95352.19;4394236;32;20184;-60
2022/08/13 11:07:36;;;;;;;0.47;0.47;;;;;;;24.04;44.71;95349.53;4395816;32;20199;-60
2022/08/13 11:10:07;;;;;;;0.33;0.33;;;;;;;24.02;45.52;95343.72;4391449;32;20194;-60
2022/08/13 11:12:33;;;;;;;0.70;0.70;;;;;;;24.02;45.23;95347.22;4405494;32;20191;-60
2022/08/13 11:15:00;;;;;;;0.37;0.37;;;;;;;23.94;45.72;95351.78;4395191;32;20255;-61
2022/08/13 11:17:26;;;;;;;0.50;0.50;;;;;;;23.98;45.64;95340.97;4396326;32;20231;-60
2022/08/13 11:19:51;;;;;;;0.57;0.57;;;;;;;24.03;45.45;95348.75;4398527;32;20223;-61
2022/08/13 11:22:17;;;;;;;0.40;0.40;;;;;;;24.10;45.60;95354.22;4400035;32;20207;-60
2022/08/13 11:24:43;;;;;;;0.50;0.50;;;;;;;24.05;45.42;95357.28;4394500;32;20199;-60
2022/08/13 11:27:08;;;;;;;0.30;0.30;;;;;;;24.01;44.58;95350.28;4400744;32;20192;-60
2022/08/13 11:29:33;;;;;;;0.90;0.57;;;;;;;23.93;45.20;95344.81;4389920;32;20195;-60
2022/08/13 11:31:59;;;;;;;0.43;0.43;;;;;;;23.94;45.91;95346.38;4398632;32;20214;-60
2022/08/13 11:34:25;;;;;;;0.87;0.87;;;;;;;24.04;45.74;95347.59;4402794;32;20219;-60
2022/08/13 11:36:51;;;;;;;0.77;0.77;;;;;;;24.06;46.03;95348.00;4388681;32;20185;-61
2022/08/13 11:39:17;;;;;;;0.67;0.67;;;;;;;24.09;45.04;95352.69;4391753;32;20231;-60
2022/08/13 11:41:42;;;;;;;0.70;0.70;;;;;;;24.07;45.23;95337.94;4396096;32;20176;-60
2022/08/13 11:44:07;;;;;;;0.80;0.80;;;;;;;24.14;45.07;95348.81;4408673;32;20176;-60
2022/08/13 11:46:33;;;;;;;0.30;0.30;;;;;;;24.13;44.14;95336.41;4406037;32;20193;-60
2022/08/13 11:48:58;;;;;;;0.67;0.67;;;;;;;24.05;43.39;95340.25;4389866;32;20181;-60
2022/08/13 11:51:24;;;;;;;0.67;0.67;;;;;;;23.96;44.06;95344.06;4389212;32;20233;-60
2022/08/13 11:53:49;;;;;;;2.83;2.60;;;;;;;23.86;44.66;95347.50;4394745;32;20180;-60